Time;durP1;ratioP1;P1;durP2;ratioP2;P2;SDS_P1;SDS_P2;PMS_P1;PMS_P2;Temp;Humidity;BMP_temperature;BMP_pressure;BME280_temperature;BME280_humidity;BME280_pressure;Samples;Min_cycle;Max_cycle;Signal;HPM_P1;HPM_P2
2023/10/17 00:01:00;;;;;;;10.88;7.00;;;;;;;3.57;100.00;100966.56;5574994;31;35019;-65
2023/10/17 00:04:47;;;;;;;12.60;7.28;;;;;;;3.53;100.00;100970.38;5588658;31;34080;-65
2023/10/17 00:07:31;;;;;;;12.45;7.07;;;;;;;3.59;100.00;100963.81;5584675;31;34210;-65
2023/10/17 00:10:41;;;;;;;12.98;6.80;;;;;;;3.49;100.00;100966.25;5588764;31;35149;-65
2023/10/17 00:13:59;;;;;;;10.33;7.17;;;;;;;3.43;100.00;100964.94;5575531;31;34808;-65
2023/10/17 00:17:05;;;;;;;12.27;6.80;;;;;;;3.17;100.00;100958.03;5588456;31;34240;-65
2023/10/17 00:20:16;;;;;;;15.65;7.50;;;;;;;3.03;100.00;100956.38;5588357;31;34053;-65
2023/10/17 00:23:29;;;;;;;13.60;6.80;;;;;;;2.93;100.00;100959.72;5588350;31;34308;-65
2023/10/17 00:26:32;;;;;;;11.57;6.60;;;;;;;2.83;100.00;100956.03;5588422;31;34379;-65
2023/10/17 00:29:36;;;;;;;9.73;6.20;;;;;;;2.77;100.00;100962.53;5588289;31;34727;-65
2023/10/17 00:32:41;;;;;;;10.43;6.53;;;;;;;2.72;100.00;100961.16;5588241;31;34330;-65
2023/10/17 00:35:48;;;;;;;11.98;6.75;;;;;;;2.69;100.00;100964.00;5588499;31;34048;-65
2023/10/17 00:38:51;;;;;;;11.90;6.37;;;;;;;2.66;100.00;100953.75;5588054;31;34105;-65
2023/10/17 00:45:08;;;;;;;10.82;6.53;;;;;;;2.54;100.00;100951.00;5578116;31;34687;-65
2023/10/17 00:48:19;;;;;;;14.23;6.62;;;;;;;2.55;100.00;100952.69;5590472;31;34839;-65
2023/10/17 00:51:22;;;;;;;10.02;6.53;;;;;;;2.58;100.00;100949.00;5590837;31;34666;-65
2023/10/17 00:54:32;;;;;;;10.50;5.95;;;;;;;2.88;100.00;100944.31;5590519;31;34210;-65
2023/10/17 00:57:36;;;;;;;10.68;5.85;;;;;;;2.99;100.00;100941.81;5590473;31;34075;-65
2023/10/17 01:00:41;;;;;;;10.23;5.22;;;;;;;3.05;100.00;100932.66;5590473;31;34102;-66
2023/10/17 01:03:45;;;;;;;8.90;5.07;;;;;;;2.93;100.00;100936.97;5576746;31;33482;-65
2023/10/17 01:06:54;;;;;;;9.27;4.97;;;;;;;2.85;100.00;100941.06;5590665;31;34148;-65
2023/10/17 01:10:14;;;;;;;7.47;4.87;;;;;;;2.81;100.00;100935.19;5590569;31;34120;-65
2023/10/17 01:13:17;;;;;;;9.75;5.37;;;;;;;2.73;100.00;100934.88;5590428;31;35318;-64
2023/10/17 01:16:21;;;;;;;9.13;4.80;;;;;;;2.72;100.00;100933.19;5590287;31;34386;-66
2023/10/17 01:19:24;;;;;;;11.27;5.07;;;;;;;2.73;100.00;100926.16;5590393;31;34773;-66
2023/10/17 01:22:32;;;;;;;11.30;5.28;;;;;;;2.85;100.00;100928.81;5590612;31;34776;-66
2023/10/17 01:25:38;;;;;;;8.55;4.55;;;;;;;2.73;100.00;100918.31;5590315;31;34791;-67
2023/10/17 01:28:45;;;;;;;9.55;4.80;;;;;;;2.66;100.00;100912.66;5590418;31;34845;-65
2023/10/17 01:31:50;;;;;;;11.25;5.00;;;;;;;2.60;100.00;100910.47;5590118;31;34154;-65
2023/10/17 01:34:53;;;;;;;7.53;4.80;;;;;;;2.50;100.00;100919.88;5590274;31;34092;-65
2023/10/17 01:37:56;;;;;;;10.00;4.72;;;;;;;2.42;100.00;100917.75;5590280;31;34795;-65
2023/10/17 01:41:02;;;;;;;9.88;5.00;;;;;;;2.35;100.00;100913.88;5590044;31;34149;-65
2023/10/17 01:44:08;;;;;;;9.85;4.90;;;;;;;2.29;100.00;100924.75;5590101;31;34143;-64
2023/10/17 01:47:11;;;;;;;11.05;4.70;;;;;;;2.27;100.00;100925.81;5589885;31;34757;-65
2023/10/17 01:50:14;;;;;;;7.65;4.65;;;;;;;2.24;100.00;100923.38;5590089;31;34689;-65
2023/10/17 01:53:18;;;;;;;8.82;5.00;;;;;;;2.26;100.00;100924.13;5589178;31;33971;-65
2023/10/17 01:56:26;;;;;;;15.07;5.60;;;;;;;2.25;100.00;100923.28;5589951;31;34050;-65
2023/10/17 01:59:29;;;;;;;12.60;6.93;;;;;;;2.27;100.00;100924.03;5589925;31;34739;-65
2023/10/17 02:02:32;;;;;;;10.93;6.30;;;;;;;2.43;100.00;100919.44;5590168;31;34383;-65
2023/10/17 02:05:36;;;;;;;9.52;6.40;;;;;;;2.56;100.00;100922.94;5590147;31;35101;-65
2023/10/17 02:08:39;;;;;;;12.02;7.60;;;;;;;2.59;100.00;100927.94;5589835;31;34035;-65
2023/10/17 02:11:44;;;;;;;12.50;7.90;;;;;;;2.78;100.00;100934.56;5589780;31;34092;-65
2023/10/17 02:14:47;;;;;;;12.73;8.13;;;;;;;2.82;100.00;100938.63;5589854;31;34160;-65
2023/10/17 02:17:51;;;;;;;14.48;8.57;;;;;;;2.81;100.00;100934.38;5589758;31;34117;-64
2023/10/17 02:21:04;;;;;;;15.35;9.23;;;;;;;2.91;100.00;100940.62;5576079;31;34149;-65
2023/10/17 02:24:07;;;;;;;14.82;8.85;;;;;;;2.89;100.00;100937.28;5589970;31;34107;-65
2023/10/17 02:27:12;;;;;;;15.60;9.18;;;;;;;2.80;100.00;100941.38;5590172;31;34527;-65
2023/10/17 02:30:25;;;;;;;15.43;8.85;;;;;;;2.79;100.00;100944.94;5589688;31;34757;-65
2023/10/17 02:33:29;;;;;;;15.05;8.80;;;;;;;2.78;100.00;100943.25;5589950;31;34068;-65
2023/10/17 02:36:32;;;;;;;12.00;7.70;;;;;;;2.72;100.00;100948.91;5589894;31;34157;-65
2023/10/17 02:39:37;;;;;;;16.37;8.30;;;;;;;2.80;100.00;100956.25;5589679;31;34815;-65
2023/10/17 02:42:40;;;;;;;10.95;7.35;;;;;;;2.81;100.00;100957.94;5589602;31;34115;-65
2023/10/17 02:45:43;;;;;;;13.15;7.10;;;;;;;2.89;100.00;100953.00;5589677;31;34752;-65
2023/10/17 02:48:47;;;;;;;15.07;8.38;;;;;;;2.95;100.00;100950.78;5589442;31;34884;-65
2023/10/17 02:51:53;;;;;;;14.35;7.65;;;;;;;2.89;100.00;100953.00;5575840;31;34098;-65
2023/10/17 02:54:57;;;;;;;13.95;7.47;;;;;;;2.87;100.00;100947.88;5589471;31;34235;-65
2023/10/17 02:58:00;;;;;;;12.00;7.43;;;;;;;2.83;100.00;100946.41;5589495;31;34856;-65
2023/10/17 03:01:03;;;;;;;11.30;7.25;;;;;;;2.77;100.00;100949.44;5589528;31;34150;-65
2023/10/17 03:04:09;;;;;;;13.98;7.53;;;;;;;2.69;100.00;100953.53;5589169;31;34569;-65
2023/10/17 03:07:15;;;;;;;13.93;7.12;;;;;;;2.65;100.00;100952.91;5589542;31;34082;-65
2023/10/17 03:10:39;;;;;;;12.10;7.30;;;;;;;2.61;100.00;100957.47;5589432;31;35049;-65
2023/10/17 03:13:44;;;;;;;12.65;7.62;;;;;;;2.57;100.00;100957.78;5589361;31;34127;-65
2023/10/17 03:16:55;;;;;;;15.88;7.60;;;;;;;2.55;100.00;100959.69;5589281;31;34793;-65
2023/10/17 03:19:57;;;;;;;13.68;7.70;;;;;;;2.48;100.00;100953.16;5589331;31;34064;-65
2023/10/17 03:23:00;;;;;;;13.88;7.37;;;;;;;2.48;100.00;100946.16;5589277;31;33990;-65
2023/10/17 03:26:03;;;;;;;12.15;7.32;;;;;;;2.44;100.00;100946.47;5589175;31;34075;-65
2023/10/17 03:29:14;;;;;;;10.95;6.68;;;;;;;2.47;100.00;100952.31;5589466;31;34007;-66
2023/10/17 03:32:16;;;;;;;16.75;7.22;;;;;;;2.49;100.00;100960.09;5589172;31;34038;-66
2023/10/17 03:35:25;;;;;;;9.77;6.70;;;;;;;2.46;100.00;100963.78;5589049;31;34875;-66
2023/10/17 03:38:31;;;;;;;10.50;6.18;;;;;;;2.50;100.00;100960.00;5589476;31;34820;-66
2023/10/17 03:41:37;;;;;;;13.73;6.85;;;;;;;2.47;100.00;100965.41;5588892;31;34140;-66
2023/10/17 03:44:39;;;;;;;10.60;6.68;;;;;;;2.36;100.00;100964.47;5588826;31;34029;-66
2023/10/17 03:47:53;;;;;;;11.65;6.50;;;;;;;2.35;100.00;100968.87;5588732;31;33988;-66
2023/10/17 03:51:08;;;;;;;11.60;7.00;;;;;;;2.31;100.00;100962.16;5588941;31;34780;-66
2023/10/17 03:54:17;;;;;;;14.38;6.85;;;;;;;2.28;100.00;100958.87;5588823;31;34058;-65
2023/10/17 03:57:25;;;;;;;14.10;7.50;;;;;;;2.26;100.00;100966.84;5589182;31;34002;-66
2023/10/17 04:00:34;;;;;;;11.65;6.93;;;;;;;2.26;100.00;100956.38;5575073;31;34389;-66
2023/10/17 04:03:38;;;;;;;13.85;6.65;;;;;;;2.26;100.00;100958.16;5588658;31;34047;-65
2023/10/17 04:06:41;;;;;;;9.88;6.50;;;;;;;2.31;100.00;100948.22;5588700;31;33005;-65
2023/10/17 04:13:34;;;;;;;9.90;5.93;;;;;;;2.34;100.00;100948.00;5588611;31;34037;-65
2023/10/17 04:16:43;;;;;;;12.00;6.10;;;;;;;2.69;100.00;100948.28;5590520;31;34106;-65
2023/10/17 04:19:48;;;;;;;11.48;5.62;;;;;;;2.66;100.00;100948.50;5595031;31;34237;-66
2023/10/17 04:22:51;;;;;;;9.35;5.28;;;;;;;2.67;100.00;100951.00;5594922;31;34172;-65
2023/10/17 04:25:55;;;;;;;11.82;5.20;;;;;;;2.63;100.00;100950.38;5594820;31;34652;-65
2023/10/17 04:29:13;;;;;;;10.52;5.07;;;;;;;2.51;100.00;100950.38;5594884;31;34107;-66
2023/10/17 04:32:19;;;;;;;12.00;5.65;;;;;;;2.51;100.00;100947.75;5595059;31;34234;-66
2023/10/17 04:35:23;;;;;;;12.05;4.95;;;;;;;2.55;100.00;100946.59;5594645;31;34873;-66
2023/10/17 04:38:27;;;;;;;12.40;5.57;;;;;;;2.47;100.00;100956.75;5594502;31;34202;-66
2023/10/17 04:44:34;;;;;;;15.60;6.15;;;;;;;2.47;100.00;100956.75;5594479;31;34398;-65
2023/10/17 04:47:39;;;;;;;9.98;5.97;;;;;;;2.40;100.00;100960.72;5594179;31;34048;-66
2023/10/17 04:50:45;;;;;;;11.60;6.68;;;;;;;2.45;100.00;100963.84;5594420;31;34124;-66
2023/10/17 04:53:49;;;;;;;12.00;6.90;;;;;;;2.49;100.00;100967.94;5580736;31;34088;-66
2023/10/17 04:56:58;;;;;;;12.25;7.35;;;;;;;2.39;100.00;100961.63;5594232;31;34078;-66
2023/10/17 05:00:15;;;;;;;10.70;7.82;;;;;;;2.38;100.00;100971.28;5594640;31;34816;-67
2023/10/17 05:03:32;;;;;;;18.92;7.72;;;;;;;2.42;100.00;100980.59;5594473;31;35032;-66
2023/10/17 06:17:40;;;;;;;14.18;7.62;;;;;;;2.97;100.00;101030.16;5589467;31;34183;-67
2023/10/17 06:31:34;;;;;;;14.38;7.28;;;;;;;3.60;100.00;101036.34;5589341;31;34136;-65
2023/10/17 06:34:18;;;;;;;16.00;7.55;;;;;;;3.57;100.00;101041.81;5589073;31;34171;-65
2023/10/17 06:37:28;;;;;;;14.38;7.28;;;;;;;3.71;100.00;101046.94;5589771;31;34748;-66
2023/10/17 06:40:37;;;;;;;13.18;7.05;;;;;;;3.79;100.00;101055.94;5575208;31;34771;-66
2023/10/17 06:43:46;;;;;;;14.05;7.00;;;;;;;3.81;100.00;101040.09;5576015;31;34044;-66
2023/10/17 06:53:06;;;;;;;12.30;6.90;;;;;;;3.95;100.00;101053.06;5589247;31;34768;-66
2023/10/17 06:56:09;;;;;;;15.38;7.43;;;;;;;3.93;100.00;101041.81;5589076;31;34025;-66
2023/10/17 06:59:33;;;;;;;13.48;7.05;;;;;;;3.94;100.00;101041.72;5589203;31;33990;-66
2023/10/17 07:02:41;;;;;;;13.65;6.62;;;;;;;3.95;100.00;101047.81;5588959;31;34091;-66
2023/10/17 07:05:49;;;;;;;12.93;6.72;;;;;;;4.10;100.00;101053.75;5575083;31;34259;-66
2023/10/17 07:08:53;;;;;;;12.50;6.35;;;;;;;4.20;100.00;101037.25;5588936;31;34210;-66
2023/10/17 07:12:02;;;;;;;15.68;6.43;;;;;;;4.28;100.00;101036.66;5588289;31;34797;-65
2023/10/17 07:15:18;;;;;;;14.77;5.53;;;;;;;4.38;100.00;101040.31;5589328;31;34484;-65
2023/10/17 07:21:57;;;;;;;16.50;6.18;;;;;;;4.63;100.00;101044.59;5589311;31;34270;-65
2023/10/17 07:25:02;;;;;;;10.70;5.20;;;;;;;4.87;100.00;101045.41;5589151;31;33613;-65
2023/10/17 07:28:10;;;;;;;15.48;5.10;;;;;;;4.91;100.00;101051.25;5588988;31;34753;-65
2023/10/17 07:31:14;;;;;;;10.10;5.12;;;;;;;5.12;100.00;101042.59;5589014;31;34976;-66
2023/10/17 07:34:22;;;;;;;9.50;5.40;;;;;;;5.33;100.00;101049.78;5575246;31;34757;-66
2023/10/17 07:37:26;;;;;;;10.52;5.50;;;;;;;5.69;100.00;101049.56;5588932;31;34421;-66
2023/10/17 07:40:33;;;;;;;13.35;4.80;;;;;;;6.52;100.00;101052.56;5588860;31;34037;-65
2023/10/17 07:43:36;;;;;;;8.45;4.40;;;;;;;8.18;100.00;101052.38;5588732;31;34305;-65
2023/10/17 07:46:44;;;;;;;9.23;4.22;;;;;;;10.81;97.07;101054.78;5588408;31;34070;-66
2023/10/17 07:49:47;;;;;;;9.00;3.87;;;;;;;12.67;72.57;101054.91;5575209;31;34175;-65
2023/10/17 07:52:51;;;;;;;8.05;3.70;;;;;;;13.38;64.82;101050.59;5587301;31;35547;-65
2023/10/17 07:56:03;;;;;;;6.70;4.05;;;;;;;12.49;64.86;101045.22;5588818;31;34028;-66
2023/10/17 07:59:08;;;;;;;9.18;3.58;;;;;;;13.87;61.27;101053.94;5588706;31;34192;-66
2023/10/17 08:02:18;;;;;;;6.65;3.62;;;;;;;14.47;59.32;101057.84;5588367;31;35042;-67
2023/10/17 08:05:26;;;;;;;13.77;3.83;;;;;;;16.13;51.44;101049.56;5574852;31;34331;-66
2023/10/17 08:08:42;;;;;;;5.30;3.40;;;;;;;17.24;48.11;101065.97;5588624;31;34138;-67
2023/10/17 08:11:46;;;;;;;6.97;3.62;;;;;;;18.44;44.66;101066.44;5589068;31;33280;-67
2023/10/17 08:15:17;;;;;;;10.82;4.05;;;;;;;18.45;42.89;101054.66;5562232;31;35160;-67
2023/10/17 08:18:28;;;;;;;7.30;3.55;;;;;;;15.74;47.28;101052.56;5588398;31;35189;-67
2023/10/17 08:21:40;;;;;;;7.78;3.97;;;;;;;13.41;52.34;101047.56;5588313;31;34277;-66
2023/10/17 08:24:51;;;;;;;9.57;4.43;;;;;;;12.65;58.04;101049.75;5588326;31;34868;-66
2023/10/17 08:27:55;;;;;;;11.68;4.12;;;;;;;11.43;62.34;101052.91;5588023;31;34112;-66
2023/10/17 08:34:41;;;;;;;8.13;3.95;;;;;;;8.81;93.22;101043.09;5587947;31;34125;-65
2023/10/17 08:37:44;;;;;;;9.32;4.43;;;;;;;8.50;99.57;101041.59;5588104;31;33039;-66
2023/10/17 08:40:49;;;;;;;8.82;4.05;;;;;;;8.66;100.00;101041.88;5587922;31;35194;-65
2023/10/17 08:43:54;;;;;;;9.70;4.55;;;;;;;8.22;100.00;101028.19;5587836;31;34767;-66
2023/10/17 08:46:58;;;;;;;10.15;4.72;;;;;;;8.22;100.00;101036.13;5573493;31;34235;-66
2023/10/17 08:50:04;;;;;;;11.10;4.97;;;;;;;8.26;100.00;101039.31;5587644;31;35555;-66
2023/10/17 08:53:23;;;;;;;8.35;4.43;;;;;;;8.34;100.00;101039.47;5587657;31;34083;-65
2023/10/17 08:56:28;;;;;;;6.15;4.00;;;;;;;8.72;100.00;101030.72;5587542;31;34809;-66
2023/10/17 09:02:55;;;;;;;8.50;4.20;;;;;;;8.95;94.81;101032.12;5588476;31;34854;-66
2023/10/17 09:09:19;;;;;;;9.00;4.18;;;;;;;9.21;91.98;101027.03;5590441;31;34135;-66
2023/10/17 09:12:24;;;;;;;18.73;6.40;;;;;;;9.46;90.31;101028.22;5590115;31;34037;-66
2023/10/17 09:15:39;;;;;;;12.57;6.25;;;;;;;9.36;85.88;101032.72;5590204;31;34744;-66
2023/10/17 09:18:49;;;;;;;9.75;3.70;;;;;;;9.32;81.24;101024.22;5590136;31;34111;-67
2023/10/17 09:21:53;;;;;;;5.53;2.67;;;;;;;9.67;81.95;101031.50;5576511;31;34154;-66
2023/10/17 09:24:56;;;;;;;6.00;2.70;;;;;;;9.49;73.14;101034.06;5590471;31;34202;-66
2023/10/17 09:28:00;;;;;;;12.30;2.65;;;;;;;9.40;74.79;101034.09;5576569;31;34687;-66
2023/10/17 09:31:12;;;;;;;6.60;2.58;;;;;;;9.39;71.24;101038.53;5576251;31;34103;-66
2023/10/17 09:34:17;;;;;;;4.53;2.20;;;;;;;9.52;71.44;101036.44;5589881;31;34181;-66
2023/10/17 09:37:21;;;;;;;7.22;2.67;;;;;;;9.74;69.86;101035.22;5576309;31;34137;-65
2023/10/17 09:40:29;;;;;;;7.40;2.75;;;;;;;9.54;71.20;101028.31;5589847;31;34015;-67
2023/10/17 09:43:33;;;;;;;9.27;2.20;;;;;;;9.79;69.91;101026.81;5590017;31;32798;-66
2023/10/17 09:46:39;;;;;;;5.82;2.15;;;;;;;10.03;66.49;101029.75;5590071;31;34139;-66
2023/10/17 09:49:49;;;;;;;7.75;2.20;;;;;;;10.25;66.10;101023.25;5590249;31;34745;-66
2023/10/17 09:52:56;;;;;;;;;;;;;;;10.49;63.05;101015.53;5576688;31;33029;-68
2023/10/17 09:56:08;;;;;;;7.47;2.20;;;;;;;10.68;62.25;101007.41;5590073;31;34850;-67
2023/10/17 09:59:14;;;;;;;4.18;2.17;;;;;;;10.47;64.04;101009.53;5576058;31;33250;-65
2023/10/17 10:02:20;;;;;;;5.18;2.00;;;;;;;10.54;60.70;100999.16;5576130;31;34078;-66
2023/10/17 10:05:26;;;;;;;8.88;2.30;;;;;;;10.72;61.10;100992.00;5576330;31;33296;-67
2023/10/17 10:08:32;;;;;;;6.28;2.20;;;;;;;11.18;59.47;100989.00;5590038;31;34704;-67
2023/10/17 10:11:48;;;;;;;4.82;2.15;;;;;;;12.22;56.06;100986.16;5576249;31;34286;-67
2023/10/17 10:14:52;;;;;;;7.45;2.03;;;;;;;12.71;54.43;100985.19;5588973;31;32695;-69
2023/10/17 10:17:55;;;;;;;6.65;2.05;;;;;;;12.55;52.91;100986.03;5589810;31;35419;-67
2023/10/17 10:20:58;;;;;;;5.62;2.10;;;;;;;12.57;53.96;100980.53;5589774;31;34273;-68
2023/10/17 10:24:03;;;;;;;5.03;1.90;;;;;;;13.06;53.79;100968.84;5589154;31;34068;-67
2023/10/17 10:27:15;;;;;;;6.07;2.10;;;;;;;12.64;52.92;100979.69;5589354;31;34376;-65
2023/10/17 10:30:35;;;;;;;8.60;2.35;;;;;;;12.77;53.31;100965.91;5589299;31;34242;-66
2023/10/17 10:33:38;;;;;;;7.40;2.15;;;;;;;13.08;51.73;100969.50;5589367;31;34363;-66
2023/10/17 10:36:42;;;;;;;6.47;2.20;;;;;;;13.54;50.33;100963.59;5589386;31;34107;-66
2023/10/17 10:40:16;;;;;;;6.30;2.10;;;;;;;13.65;49.85;100955.22;5589375;31;34158;-67
2023/10/17 10:43:20;;;;;;;6.95;2.05;;;;;;;14.14;49.61;100963.75;5589327;31;34159;-67
2023/10/17 10:46:23;;;;;;;7.22;2.35;;;;;;;14.03;48.73;100961.50;5588959;31;34091;-67
2023/10/17 10:49:28;;;;;;;6.12;2.22;;;;;;;13.86;49.49;100950.09;5575629;31;34720;-67
2023/10/17 10:52:31;;;;;;;5.97;2.15;;;;;;;12.86;51.37;100945.41;5575182;31;34164;-66
2023/10/17 10:55:34;;;;;;;5.22;2.22;;;;;;;12.99;51.39;100935.91;5588914;31;35646;-67
2023/10/17 10:58:51;;;;;;;5.37;1.80;;;;;;;14.69;49.59;100926.16;5589112;31;34814;-66
2023/10/17 11:01:54;;;;;;;5.68;2.40;;;;;;;17.83;42.03;100931.34;5575112;31;34226;-66
2023/10/17 11:04:58;;;;;;;6.55;2.10;;;;;;;18.33;39.72;100935.41;5588847;31;34167;-67
2023/10/17 11:08:01;;;;;;;3.60;2.00;;;;;;;19.60;37.06;100922.47;5589162;31;34111;-68
2023/10/17 11:11:05;;;;;;;5.10;1.83;;;;;;;23.41;32.23;100928.78;5575758;31;34024;-69
2023/10/17 11:14:15;;;;;;;5.03;1.80;;;;;;;23.46;30.76;100925.41;5589606;31;34174;-67
2023/10/17 11:17:18;;;;;;;4.90;2.05;;;;;;;24.13;29.83;100923.72;5589056;31;34153;-67
2023/10/17 11:20:22;;;;;;;3.50;1.70;;;;;;;22.60;30.33;100928.81;5589048;31;34713;-66
2023/10/17 11:23:28;;;;;;;5.60;1.80;;;;;;;22.05;30.90;100920.91;5589101;31;34751;-68
2023/10/17 11:26:34;;;;;;;5.43;1.90;;;;;;;20.64;33.23;100920.16;5575008;31;34735;-68
2023/10/17 11:29:36;;;;;;;4.32;1.60;;;;;;;22.47;30.32;100919.00;5574937;31;34022;-67
2023/10/17 11:32:40;;;;;;;3.60;1.77;;;;;;;22.63;30.71;100912.91;5588631;31;34090;-68
2023/10/17 11:35:52;;;;;;;4.32;1.80;;;;;;;21.69;31.42;100909.09;5589034;31;35101;-68
2023/10/17 11:38:57;;;;;;;4.20;1.98;;;;;;;24.22;27.77;100911.44;5589186;31;34138;-67
2023/10/17 11:42:00;;;;;;;6.82;3.80;;;;;;;22.92;29.67;100908.50;5588691;31;34306;-68
2023/10/17 11:45:19;;;;;;;5.90;1.90;;;;;;;23.47;28.58;100894.56;5589105;31;34169;-68
2023/10/17 11:48:40;;;;;;;4.97;1.87;;;;;;;20.60;31.61;100890.13;5588358;31;34816;-68
2023/10/17 11:51:48;;;;;;;3.80;1.65;;;;;;;21.31;30.93;100891.50;5588546;31;34159;-68
2023/10/17 11:55:11;;;;;;;4.15;1.87;;;;;;;24.53;26.72;100896.53;5588559;31;34046;-67
2023/10/17 11:58:25;;;;;;;4.18;1.70;;;;;;;20.16;32.02;100882.16;5588291;31;34807;-67
2023/10/17 12:01:28;;;;;;;3.42;1.77;;;;;;;19.60;33.00;100892.88;5588416;31;34869;-68
2023/10/17 12:04:33;;;;;;;7.65;2.08;;;;;;;20.03;32.56;100891.19;5589432;31;34344;-67
2023/10/17 12:07:42;;;;;;;6.15;1.95;;;;;;;19.77;33.07;100875.16;5588849;31;34064;-68
2023/10/17 12:10:45;;;;;;;4.10;2.00;;;;;;;19.12;33.55;100872.50;5588065;31;34705;-68
2023/10/17 12:13:48;;;;;;;5.57;1.87;;;;;;;20.88;31.74;100860.00;5588397;31;34130;-67
2023/10/17 12:16:58;;;;;;;5.40;1.90;;;;;;;20.42;32.20;100862.31;5588562;31;34225;-67
2023/10/17 12:20:09;;;;;;;3.80;1.83;;;;;;;18.27;35.63;100861.84;5588444;31;34118;-68
2023/10/17 12:23:12;;;;;;;6.22;1.95;;;;;;;17.39;36.91;100860.16;5588264;31;34257;-67
2023/10/17 12:26:26;;;;;;;3.22;1.90;;;;;;;15.67;39.79;100845.69;5587898;31;34040;-67
2023/10/17 12:29:30;;;;;;;7.43;2.08;;;;;;;14.93;40.81;100842.28;5588379;31;34659;-67
2023/10/17 12:32:33;;;;;;;7.70;2.60;;;;;;;14.54;42.59;100837.19;5574192;31;34050;-66
2023/10/17 12:35:37;;;;;;;6.18;2.28;;;;;;;14.18;42.56;100835.16;5588280;31;34734;-67
2023/10/17 12:38:40;;;;;;;6.95;2.35;;;;;;;14.30;42.85;100835.53;5588918;31;34074;-67
2023/10/17 12:41:45;;;;;;;5.95;2.28;;;;;;;14.09;43.46;100827.37;5590534;31;33193;-67
2023/10/17 12:44:48;;;;;;;7.25;2.70;;;;;;;13.78;44.22;100824.81;5590358;31;34070;-66
2023/10/17 12:47:54;;;;;;;4.00;2.20;;;;;;;13.43;44.92;100821.69;5590489;31;35010;-68
2023/10/17 12:50:57;;;;;;;10.75;2.50;;;;;;;13.12;45.48;100817.38;5590712;31;35130;-67
2023/10/17 12:54:03;;;;;;;4.65;2.15;;;;;;;12.84;45.79;100816.94;5590435;31;33958;-67
2023/10/17 12:57:06;;;;;;;4.50;2.05;;;;;;;13.04;45.12;100811.03;5590356;31;34136;-67
2023/10/17 13:00:11;;;;;;;5.75;2.10;;;;;;;13.43;46.16;100807.53;5590234;31;34074;-66
2023/10/17 13:03:14;;;;;;;6.72;2.75;;;;;;;13.34;47.21;100813.91;5590369;31;35045;-66
2023/10/17 13:06:17;;;;;;;6.90;2.60;;;;;;;13.05;46.48;100811.88;5590165;31;34143;-66
2023/10/17 13:09:22;;;;;;;8.32;2.58;;;;;;;13.10;46.82;100806.00;5590467;31;35169;-66
2023/10/17 13:12:25;;;;;;;7.75;2.85;;;;;;;13.37;47.08;100811.72;5590198;31;34776;-66
2023/10/17 13:15:29;;;;;;;6.82;2.60;;;;;;;13.73;46.33;100809.34;5590375;31;34118;-66
2023/10/17 13:18:36;;;;;;;5.07;2.47;;;;;;;13.61;45.70;100812.56;5576455;31;34864;-67
2023/10/17 13:21:41;;;;;;;6.40;2.53;;;;;;;13.72;44.58;100802.34;5589975;31;34156;-66
2023/10/17 13:24:48;;;;;;;9.15;2.55;;;;;;;13.78;45.31;100790.13;5576355;31;34016;-66
2023/10/17 13:27:51;;;;;;;6.32;2.53;;;;;;;12.99;45.62;100800.06;5589928;31;34075;-66
2023/10/17 13:30:58;;;;;;;8.23;2.60;;;;;;;13.00;45.92;100784.91;5576103;31;34474;-66
2023/10/17 13:34:01;;;;;;;6.65;2.33;;;;;;;13.18;46.08;100790.00;5589544;31;34827;-66
2023/10/17 13:37:04;;;;;;;6.00;2.53;;;;;;;13.18;46.19;100798.84;5589947;31;34179;-66
2023/10/17 13:40:09;;;;;;;5.35;2.25;;;;;;;13.43;45.51;100784.38;5576058;31;34009;-66
2023/10/17 13:43:13;;;;;;;4.45;2.08;;;;;;;13.76;45.16;100794.81;5589778;31;34918;-66
2023/10/17 13:46:17;;;;;;;6.90;2.47;;;;;;;13.42;44.93;100805.88;5575718;31;34148;-67
2023/10/17 13:49:21;;;;;;;6.85;2.00;;;;;;;13.24;45.30;100797.31;5588584;31;34193;-66
2023/10/17 13:52:24;;;;;;;5.97;2.50;;;;;;;13.31;45.67;100796.44;5575629;31;34135;-66
2023/10/17 13:55:27;;;;;;;7.18;2.28;;;;;;;13.18;47.26;100795.34;5589174;31;34193;-66
2023/10/17 13:58:34;;;;;;;5.97;2.17;;;;;;;13.03;45.76;100782.72;5589148;31;34309;-66
2023/10/17 14:01:45;;;;;;;6.60;2.37;;;;;;;13.02;46.04;100781.06;5589511;31;34712;-66
2023/10/17 14:04:48;;;;;;;6.15;2.55;;;;;;;12.79;46.27;100780.16;5589015;31;34129;-67
2023/10/17 14:07:52;;;;;;;6.07;2.33;;;;;;;13.06;46.88;100771.75;5588540;31;34235;-67
2023/10/17 14:10:55;;;;;;;10.25;2.55;;;;;;;13.04;46.96;100773.75;5589201;31;34348;-67
2023/10/17 14:14:00;;;;;;;7.07;2.45;;;;;;;12.77;48.21;100778.69;5587718;31;34820;-67
2023/10/17 14:17:03;;;;;;;7.57;2.55;;;;;;;12.71;46.52;100779.37;5575451;31;34442;-67
2023/10/17 14:20:16;;;;;;;8.40;2.53;;;;;;;13.04;46.79;100776.41;5589122;31;34081;-66
2023/10/17 14:23:26;;;;;;;5.75;2.30;;;;;;;12.87;46.71;100785.47;5588565;31;34889;-66
2023/10/17 14:26:29;;;;;;;7.05;2.47;;;;;;;12.64;47.01;100780.06;5588944;31;34202;-66
2023/10/17 14:29:34;;;;;;;9.25;2.58;;;;;;;12.40;47.83;100769.47;5589267;31;34311;-66
2023/10/17 14:32:36;;;;;;;8.32;2.60;;;;;;;12.08;49.27;100766.88;5588841;31;34787;-66
2023/10/17 14:35:43;;;;;;;9.38;2.90;;;;;;;12.12;49.10;100765.53;5588914;31;34176;-66
2023/10/17 14:38:46;;;;;;;16.42;4.28;;;;;;;12.15;50.67;100767.88;5588964;31;34290;-66
2023/10/17 14:41:50;;;;;;;9.50;2.90;;;;;;;12.11;50.91;100775.34;5588613;31;34270;-67
2023/10/17 14:44:52;;;;;;;5.90;2.33;;;;;;;11.98;51.77;100756.44;5588260;31;34504;-66
2023/10/17 14:47:56;;;;;;;8.68;2.70;;;;;;;11.84;50.83;100759.75;5587996;31;34996;-67
2023/10/17 14:51:01;;;;;;;9.05;3.25;;;;;;;11.81;51.17;100757.44;5574848;31;34036;-67
2023/10/17 14:54:08;;;;;;;12.02;2.80;;;;;;;11.82;52.65;100758.25;5588433;31;33995;-67
2023/10/17 14:57:13;;;;;;;10.00;3.00;;;;;;;11.72;52.29;100763.69;5588592;31;34644;-67
2023/10/17 15:00:16;;;;;;;10.68;3.62;;;;;;;11.67;52.21;100758.87;5588093;31;34280;-67
2023/10/17 15:03:20;;;;;;;10.98;2.78;;;;;;;11.59;53.15;100755.41;5588823;31;33939;-67
2023/10/17 15:06:23;;;;;;;6.72;2.70;;;;;;;11.56;53.75;100756.56;5588491;31;34326;-66
2023/10/17 15:09:26;;;;;;;10.35;2.90;;;;;;;11.44;54.50;100752.56;5575079;31;34295;-67
2023/10/17 15:12:30;;;;;;;8.75;2.90;;;;;;;11.37;54.94;100751.56;5574762;31;34193;-67
2023/10/17 15:15:33;;;;;;;13.23;3.20;;;;;;;11.28;56.04;100756.00;5588634;31;34155;-67
2023/10/17 15:18:36;;;;;;;6.93;3.50;;;;;;;11.17;56.42;100758.16;5575156;31;35504;-67
2023/10/17 15:21:41;;;;;;;9.10;3.58;;;;;;;11.11;57.23;100756.97;5588044;31;34997;-68
2023/10/17 15:24:48;;;;;;;7.62;3.25;;;;;;;10.96;57.14;100753.28;5575022;31;34808;-67
2023/10/17 15:27:52;;;;;;;13.93;3.20;;;;;;;10.84;59.08;100758.03;5588847;31;34184;-67
2023/10/17 15:31:23;;;;;;;18.37;3.30;;;;;;;10.68;59.79;100758.00;5588815;31;34393;-68
2023/10/17 15:34:27;;;;;;;12.95;3.58;;;;;;;10.53;61.78;100754.25;5573132;31;34728;-65
2023/10/17 15:37:32;;;;;;;11.18;3.42;;;;;;;10.41;63.50;100751.03;5588291;31;34661;-66
2023/10/17 15:40:36;;;;;;;9.85;3.20;;;;;;;10.28;63.09;100761.25;5588178;31;34142;-66
2023/10/17 15:43:40;;;;;;;10.20;3.15;;;;;;;10.18;66.00;100751.72;5588391;31;34816;-66
2023/10/17 15:46:43;;;;;;;12.02;4.40;;;;;;;10.11;67.59;100753.31;5580585;31;243051;-67
2023/10/17 15:49:48;;;;;;;18.80;4.25;;;;;;;9.96;69.86;100748.59;5588310;31;34131;-66
2023/10/17 15:52:51;;;;;;;14.60;4.22;;;;;;;9.83;71.38;100757.91;5587760;31;34047;-66
2023/10/17 15:55:57;;;;;;;14.15;3.90;;;;;;;9.63;72.79;100754.63;5588076;31;34413;-66
2023/10/17 15:59:01;;;;;;;12.20;3.85;;;;;;;9.50;74.84;100757.62;5574078;31;34679;-66
2023/10/17 16:02:04;;;;;;;13.55;4.10;;;;;;;9.41;77.14;100769.13;5587578;31;34091;-67
2023/10/17 16:05:10;;;;;;;13.23;4.07;;;;;;;9.31;79.50;100771.03;5587941;31;35089;-66
2023/10/17 16:08:14;;;;;;;16.80;4.00;;;;;;;9.23;82.82;100770.94;5587637;31;35171;-66
2023/10/17 16:11:19;;;;;;;16.42;4.47;;;;;;;9.14;85.88;100779.78;5587447;31;34314;-67
2023/10/17 16:14:22;;;;;;;22.48;4.60;;;;;;;9.08;84.59;100778.56;5573852;31;34810;-66